createdAt,value
2022-12-09T00:00:33.053Z,17.00
2022-12-09T00:02:59.704Z,16.00
2022-12-09T00:05:26.260Z,16.52
2022-12-09T00:07:52.721Z,15.55
2022-12-09T00:10:19.318Z,16.40
2022-12-09T00:12:45.779Z,15.35
2022-12-09T00:15:12.461Z,15.40
2022-12-09T00:17:38.851Z,14.98
2022-12-09T00:20:06.419Z,14.52
2022-12-09T00:22:33.248Z,15.93
2022-12-09T00:24:59.862Z,15.38
2022-12-09T00:27:26.760Z,15.05
2022-12-09T00:29:53.167Z,16.50
2022-12-09T00:32:19.637Z,15.80
2022-12-09T00:34:46.147Z,14.85
2022-12-09T00:37:12.596Z,15.20
2022-12-09T00:39:39.107Z,15.00
2022-12-09T00:42:05.644Z,14.63
2022-12-09T00:44:32.098Z,15.02
2022-12-09T00:46:58.666Z,15.10
2022-12-09T00:49:25.261Z,15.93
2022-12-09T00:51:54.104Z,13.88
2022-12-09T00:54:20.677Z,16.20
2022-12-09T00:56:47.062Z,15.45
2022-12-09T00:59:13.468Z,13.60
2022-12-09T01:01:39.978Z,15.13
2022-12-09T01:04:08.354Z,14.85
2022-12-09T01:06:35.381Z,14.77
2022-12-09T01:09:03.265Z,14.50
2022-12-09T01:11:30.630Z,15.63
2022-12-09T01:14:01.671Z,14.48
2022-12-09T01:16:30.326Z,14.07
2022-12-09T01:18:59.666Z,15.07
2022-12-09T01:21:27.833Z,15.32
2022-12-09T01:23:54.709Z,13.45
2022-12-09T01:26:21.524Z,15.52
2022-12-09T01:28:52.635Z,15.13
2022-12-09T01:31:23.053Z,14.57
2022-12-09T01:36:19.698Z,13.30
2022-12-09T01:38:47.263Z,13.82
2022-12-09T01:41:14.900Z,14.48
2022-12-09T01:43:41.527Z,13.18
2022-12-09T01:46:08.634Z,14.35
2022-12-09T01:48:39.118Z,14.75
2022-12-09T01:51:18.552Z,13.18
2022-12-09T01:53:47.287Z,13.85
2022-12-09T01:56:27.268Z,14.60
2022-12-09T01:58:54.378Z,14.73
2022-12-09T02:01:21.507Z,14.05
2022-12-09T02:03:49.610Z,14.68
2022-12-09T02:06:16.784Z,14.80
2022-12-09T02:08:44.076Z,15.13
2022-12-09T02:11:26.097Z,13.18
2022-12-09T02:13:57.835Z,14.65
2022-12-09T02:16:26.234Z,15.68
2022-12-09T02:19:12.254Z,15.13
2022-12-09T02:21:49.610Z,14.50
2022-12-09T02:24:22.328Z,14.70
2022-12-09T02:26:55.804Z,15.35
2022-12-09T02:29:36.256Z,15.93
2022-12-09T02:32:28.964Z,14.45
2022-12-09T02:35:00.234Z,14.38
2022-12-09T02:37:42.679Z,14.10
2022-12-09T02:40:38.190Z,13.77
2022-12-09T02:43:06.773Z,14.82
2022-12-09T02:45:34.150Z,14.27
2022-12-09T02:48:02.062Z,14.65
2022-12-09T02:50:32.164Z,14.20
2022-12-09T02:53:02.168Z,14.32
2022-12-09T02:55:30.383Z,13.32
2022-12-09T02:57:59.990Z,13.82
2022-12-09T03:00:27.725Z,14.07
2022-12-09T03:03:03.256Z,12.50
2022-12-09T03:05:34.167Z,13.48
2022-12-09T03:08:17.564Z,13.35
2022-12-09T03:11:03.822Z,13.75
2022-12-09T03:13:51.853Z,14.70
2022-12-09T03:16:26.053Z,12.63
2022-12-09T03:19:04.492Z,14.52
2022-12-09T03:21:32.408Z,14.18
2022-12-09T03:23:59.582Z,13.32
2022-12-09T03:26:28.512Z,12.73
2022-12-09T03:28:55.920Z,12.48
2022-12-09T03:31:24.954Z,14.35
2022-12-09T03:33:54.368Z,12.85
2022-12-09T03:36:22.581Z,14.48
2022-12-09T03:38:49.280Z,14.27
2022-12-09T03:41:33.362Z,13.65
2022-12-09T03:44:05.231Z,13.13
2022-12-09T03:46:32.222Z,14.02
2022-12-09T03:48:58.767Z,14.05
2022-12-09T03:51:29.639Z,13.88
2022-12-09T03:54:07.009Z,14.25
2022-12-09T03:56:38.627Z,13.68
2022-12-09T03:59:13.932Z,13.30
2022-12-09T04:01:41.824Z,13.02
2022-12-09T04:04:09.047Z,15.00
2022-12-09T04:06:35.746Z,13.30
2022-12-09T04:09:03.598Z,13.60
2022-12-09T04:11:31.553Z,14.07
2022-12-09T04:13:58.380Z,13.20
2022-12-09T04:16:25.245Z,13.95
2022-12-09T04:18:51.781Z,13.18
2022-12-09T04:21:18.405Z,13.23
2022-12-09T04:23:44.864Z,13.95
2022-12-09T04:26:16.978Z,13.55
2022-12-09T04:28:43.475Z,13.32
2022-12-09T04:31:11.781Z,13.85
2022-12-09T04:33:38.707Z,12.50
2022-12-09T04:36:06.934Z,12.77
2022-12-09T04:38:33.506Z,14.73
2022-12-09T04:41:00.880Z,14.45
2022-12-09T04:43:27.501Z,14.20
2022-12-09T04:45:54.278Z,13.52
2022-12-09T04:48:21.055Z,12.73
2022-12-09T04:50:47.531Z,13.20
2022-12-09T04:53:13.993Z,12.82
2022-12-09T04:55:40.772Z,12.52
2022-12-09T04:58:07.234Z,13.45
2022-12-09T05:00:33.879Z,12.88
2022-12-09T05:03:00.436Z,12.98
2022-12-09T05:05:27.107Z,13.05
2022-12-09T05:07:54.121Z,12.98
2022-12-09T05:10:20.869Z,12.95
2022-12-09T05:12:47.510Z,12.50
2022-12-09T05:15:14.483Z,13.10
2022-12-09T05:17:41.473Z,13.50
2022-12-09T05:20:09.708Z,12.43
2022-12-09T05:22:36.418Z,13.35
2022-12-09T05:25:03.027Z,12.77
2022-12-09T05:27:29.860Z,12.48
2022-12-09T05:29:56.502Z,11.98
2022-12-09T05:32:23.203Z,12.93
2022-12-09T05:34:49.724Z,12.07
2022-12-09T05:37:16.629Z,12.88
2022-12-09T05:39:43.195Z,12.00
2022-12-09T05:42:09.934Z,13.27
2022-12-09T05:44:36.838Z,12.30
2022-12-09T05:47:03.826Z,12.77
2022-12-09T05:49:30.601Z,13.07
2022-12-09T05:51:57.585Z,13.05
2022-12-09T05:54:24.203Z,11.38
2022-12-09T05:56:51.241Z,11.85
2022-12-09T05:59:18.039Z,12.68
2022-12-09T06:01:45.173Z,11.27
2022-12-09T06:04:12.081Z,11.38
2022-12-09T06:06:38.940Z,12.40
2022-12-09T06:09:11.379Z,11.85
2022-12-09T06:11:39.470Z,12.65
2022-12-09T06:14:10.729Z,12.55
2022-12-09T06:16:37.597Z,13.43
2022-12-09T06:19:05.274Z,11.90
2022-12-09T06:21:31.828Z,11.73
2022-12-09T06:23:58.683Z,11.68
2022-12-09T06:26:27.605Z,12.13
2022-12-09T06:28:54.876Z,12.10
2022-12-09T06:31:21.471Z,14.57
2022-12-09T06:33:57.971Z,11.85
2022-12-09T06:38:52.732Z,11.50
2022-12-09T06:41:19.333Z,11.70
2022-12-09T06:43:46.151Z,12.65
2022-12-09T06:46:18.611Z,12.45
2022-12-09T06:48:45.808Z,12.85
2022-12-09T06:51:12.889Z,12.98
2022-12-09T06:53:39.737Z,12.77
2022-12-09T06:56:12.197Z,13.52
2022-12-09T06:58:40.625Z,12.07
2022-12-09T07:01:14.080Z,12.55
2022-12-09T07:03:42.878Z,12.65
2022-12-09T07:06:32.845Z,13.10
2022-12-09T07:09:01.843Z,12.98
2022-12-09T07:11:29.214Z,12.48
2022-12-09T07:13:56.295Z,12.85
2022-12-09T07:16:23.120Z,13.95
2022-12-09T07:18:50.385Z,13.50
2022-12-09T07:21:18.856Z,12.43
2022-12-09T07:23:46.031Z,12.98
2022-12-09T07:26:13.178Z,14.13
2022-12-09T07:28:42.730Z,12.75
2022-12-09T07:31:21.444Z,13.05
2022-12-09T07:33:48.512Z,13.05
2022-12-09T07:36:20.675Z,11.98
2022-12-09T07:38:48.254Z,13.25
2022-12-09T07:41:20.956Z,12.85
2022-12-09T07:43:48.160Z,12.77
2022-12-09T07:46:16.543Z,12.57
2022-12-09T07:48:43.434Z,12.60
2022-12-09T07:51:10.275Z,12.85
2022-12-09T07:53:37.961Z,13.30
2022-12-09T07:56:06.675Z,13.45
2022-12-09T07:58:33.772Z,12.02
2022-12-09T08:01:11.537Z,11.38
2022-12-09T08:03:40.315Z,12.13
2022-12-09T08:06:07.108Z,12.23
2022-12-09T08:08:34.149Z,11.73
2022-12-09T08:11:21.684Z,10.90
2022-12-09T08:13:48.555Z,10.80
2022-12-09T08:16:17.608Z,10.20
2022-12-09T08:18:44.806Z,10.88
2022-12-09T08:21:14.031Z,11.38
2022-12-09T08:23:41.130Z,10.40
2022-12-09T08:26:09.064Z,11.30
2022-12-09T08:28:36.459Z,11.00
2022-12-09T08:31:11.580Z,11.35
2022-12-09T08:33:39.078Z,11.05
2022-12-09T08:36:10.368Z,12.65
2022-12-09T08:38:37.087Z,13.45
2022-12-09T08:41:15.546Z,11.35
2022-12-09T08:43:42.925Z,11.98
2022-12-09T08:46:10.442Z,11.60
2022-12-09T08:48:38.087Z,12.77
2022-12-09T08:51:05.878Z,12.32
2022-12-09T08:53:32.417Z,13.73
2022-12-09T08:55:58.931Z,12.93
2022-12-09T08:58:25.730Z,11.55
2022-12-09T09:00:52.567Z,13.75
2022-12-09T09:03:19.420Z,12.95
2022-12-09T09:05:46.484Z,13.45
2022-12-09T09:08:13.379Z,13.20
2022-12-09T09:10:40.192Z,14.95
2022-12-09T09:13:07.105Z,11.93
2022-12-09T09:15:33.727Z,13.82
2022-12-09T09:18:02.196Z,13.43
2022-12-09T09:20:28.923Z,14.57
2022-12-09T09:23:02.634Z,14.65
2022-12-09T09:25:29.965Z,15.00
2022-12-09T09:27:56.580Z,14.85
2022-12-09T09:30:23.602Z,16.00
2022-12-09T09:32:50.290Z,16.50
2022-12-09T09:35:17.231Z,16.52
2022-12-09T09:37:43.910Z,16.40
2022-12-09T09:40:11.424Z,17.85
2022-12-09T09:42:45.302Z,17.35
2022-12-09T09:45:16.546Z,18.10
2022-12-09T09:47:55.223Z,17.63
2022-12-09T09:50:48.871Z,17.92
2022-12-09T09:53:22.096Z,16.45
2022-12-09T09:55:58.222Z,17.90
2022-12-09T09:58:36.811Z,16.95
2022-12-09T10:01:14.663Z,16.73
2022-12-09T10:04:20.736Z,15.85
2022-12-09T10:07:14.039Z,18.65
2022-12-09T10:09:59.781Z,17.67
2022-12-09T10:13:06.833Z,17.85
2022-12-09T10:15:40.933Z,18.67
2022-12-09T10:18:20.150Z,16.85
2022-12-09T10:20:46.920Z,15.38
2022-12-09T10:23:16.361Z,15.75
2022-12-09T10:26:04.163Z,15.55
2022-12-09T10:28:34.695Z,17.98
2022-12-09T10:31:02.659Z,16.25
2022-12-09T10:33:35.382Z,16.98
2022-12-09T10:36:02.148Z,16.35
2022-12-09T10:38:30.263Z,16.65
2022-12-09T10:41:02.899Z,16.80
2022-12-09T10:43:38.974Z,18.15
2022-12-09T10:46:24.204Z,15.68
2022-12-09T10:48:57.567Z,17.92
2022-12-09T10:51:34.764Z,17.13
2022-12-09T10:54:21.017Z,18.58
2022-12-09T10:57:16.406Z,15.32
2022-12-09T11:00:02.995Z,17.80
2022-12-09T11:02:31.154Z,18.25
2022-12-09T11:05:20.898Z,17.73
2022-12-09T11:07:49.580Z,19.35
2022-12-09T11:10:20.352Z,18.25
2022-12-09T11:12:51.332Z,18.10
2022-12-09T11:15:28.807Z,18.05
2022-12-09T11:18:07.913Z,18.23
2022-12-09T11:20:35.580Z,17.33
2022-12-09T11:23:17.959Z,17.30
2022-12-09T11:25:53.925Z,18.65
2022-12-09T11:28:26.946Z,18.20
2022-12-09T11:34:03.220Z,17.23
2022-12-09T11:36:38.735Z,14.13
2022-12-09T11:39:15.868Z,14.95
2022-12-09T11:42:07.358Z,16.75
2022-12-09T11:44:38.207Z,15.65
2022-12-09T11:47:21.976Z,17.60
2022-12-09T11:49:51.613Z,17.88
2022-12-09T11:52:17.996Z,16.88
2022-12-09T11:54:53.132Z,16.90
2022-12-09T11:57:33.150Z,16.23
2022-12-09T12:00:06.286Z,17.25
2022-12-09T12:02:44.999Z,16.80
2022-12-09T12:05:23.342Z,17.02
2022-12-09T12:08:01.518Z,17.17
2022-12-09T12:10:42.057Z,15.63
2022-12-09T12:14:05.777Z,16.10
2022-12-09T12:16:44.080Z,16.40
2022-12-09T12:19:17.585Z,15.43
2022-12-09T12:22:09.392Z,15.70
2022-12-09T12:24:57.352Z,16.17
2022-12-09T12:27:44.052Z,16.27
2022-12-09T12:30:11.882Z,17.60
2022-12-09T12:33:52.834Z,16.63
2022-12-09T12:36:24.967Z,16.02
2022-12-09T12:39:14.347Z,16.50
2022-12-09T12:41:52.244Z,16.45
2022-12-09T12:44:48.480Z,14.77
2022-12-09T12:47:30.394Z,14.80
2022-12-09T12:50:27.766Z,14.90
2022-12-09T12:53:05.663Z,14.77
2022-12-09T12:55:41.320Z,16.73
2022-12-09T12:58:29.543Z,17.40
2022-12-09T13:01:06.972Z,16.30
2022-12-09T13:03:38.955Z,15.57
2022-12-09T13:06:10.268Z,16.05
2022-12-09T13:08:43.441Z,15.10
2022-12-09T13:11:17.260Z,16.35
2022-12-09T13:13:46.823Z,17.55
2022-12-09T13:16:32.913Z,15.27
2022-12-09T13:19:08.139Z,14.20
2022-12-09T13:21:34.894Z,13.77
2022-12-09T13:24:19.546Z,13.55
2022-12-09T13:26:48.599Z,14.90
2022-12-09T13:29:49.194Z,14.98
2022-12-09T13:32:49.209Z,14.48
2022-12-09T13:35:38.470Z,15.02
2022-12-09T13:38:24.247Z,15.18
2022-12-09T13:40:50.743Z,14.68
2022-12-09T13:43:23.239Z,14.15
2022-12-09T13:45:54.109Z,14.80
2022-12-09T13:48:20.518Z,13.88
2022-12-09T13:50:49.889Z,14.40
2022-12-09T13:53:19.234Z,15.65
2022-12-09T13:55:56.266Z,18.38
2022-12-09T13:58:45.321Z,19.33
2022-12-09T14:01:11.608Z,15.32
2022-12-09T14:03:47.944Z,15.60
2022-12-09T14:06:38.488Z,15.88
2022-12-09T14:09:17.229Z,15.02
2022-12-09T14:11:51.053Z,15.07
2022-12-09T14:14:23.591Z,13.55
2022-12-09T14:16:50.750Z,13.52
2022-12-09T14:19:31.380Z,15.88
2022-12-09T14:22:16.931Z,14.13
2022-12-09T14:24:49.945Z,15.05
2022-12-09T14:27:27.364Z,14.20
2022-12-09T14:30:01.829Z,15.02
2022-12-09T14:32:31.225Z,15.20
2022-12-09T14:35:09.773Z,14.95
2022-12-09T14:37:51.427Z,15.15
2022-12-09T14:40:26.610Z,14.93
2022-12-09T14:43:05.107Z,14.73
2022-12-09T14:45:34.502Z,16.48
2022-12-09T14:48:02.038Z,16.40
2022-12-09T14:50:28.939Z,17.05
2022-12-09T14:53:00.350Z,14.35
2022-12-09T14:55:28.494Z,16.38
2022-12-09T14:57:57.954Z,15.45
2022-12-09T15:00:24.862Z,15.23
2022-12-09T15:03:29.950Z,15.05
2022-12-09T15:05:39.434Z,13.90
2022-12-09T15:08:06.106Z,15.93
2022-12-09T15:10:36.844Z,15.75
2022-12-09T15:13:03.555Z,16.83
2022-12-09T15:15:32.956Z,16.48
2022-12-09T15:18:01.412Z,16.00
2022-12-09T15:20:39.727Z,17.42
2022-12-09T15:23:12.162Z,17.65
2022-12-09T15:25:46.315Z,16.85
2022-12-09T15:28:15.459Z,17.08
2022-12-09T15:30:43.719Z,18.73
2022-12-09T15:33:19.591Z,17.10
2022-12-09T15:35:52.854Z,17.15
2022-12-09T15:38:19.716Z,19.00
2022-12-09T15:41:07.040Z,17.25
2022-12-09T15:43:34.913Z,18.92
2022-12-09T15:46:01.682Z,20.27
2022-12-09T15:48:35.047Z,19.50
2022-12-09T15:51:05.533Z,19.85
2022-12-09T15:53:40.901Z,19.77
2022-12-09T15:56:27.058Z,20.25
2022-12-09T15:59:08.484Z,17.38
2022-12-09T16:01:35.503Z,17.20
2022-12-09T16:04:03.161Z,20.33
2022-12-09T16:06:31.771Z,18.98
2022-12-09T16:08:58.420Z,19.25
2022-12-09T16:11:44.435Z,19.85
2022-12-09T16:14:11.860Z,21.58
2022-12-09T16:16:51.658Z,21.58
2022-12-09T16:19:36.005Z,20.48
2022-12-09T16:22:11.224Z,21.48
2022-12-09T16:25:13.121Z,19.90
2022-12-09T16:27:33.578Z,21.27
2022-12-09T16:30:23.174Z,23.15
2022-12-09T16:32:56.622Z,24.05
2022-12-09T16:35:42.868Z,22.20
2022-12-09T16:38:09.280Z,23.65
2022-12-09T16:40:57.409Z,24.05
2022-12-09T16:43:25.204Z,25.08
2022-12-09T16:45:53.353Z,24.08
2022-12-09T16:48:21.312Z,23.40
2022-12-09T16:50:50.506Z,22.88
2022-12-09T16:53:22.631Z,23.25
2022-12-09T16:55:52.259Z,22.73
2022-12-09T16:58:18.931Z,22.90
2022-12-09T17:00:46.784Z,23.85
2022-12-09T17:03:23.035Z,21.38
2022-12-09T17:05:49.471Z,21.58
2022-12-09T17:08:16.003Z,22.70
2022-12-09T17:10:42.567Z,23.77
2022-12-09T17:13:10.836Z,24.60
2022-12-09T17:15:37.296Z,26.23
2022-12-09T17:18:03.782Z,25.50
2022-12-09T17:20:30.297Z,25.95
2022-12-09T17:22:56.733Z,28.65
2022-12-09T17:25:23.133Z,27.27
2022-12-09T17:27:49.529Z,25.73
2022-12-09T17:30:15.903Z,26.85
2022-12-09T17:32:42.486Z,25.13
2022-12-09T17:35:12.528Z,26.42
2022-12-09T17:37:39.380Z,24.50
2022-12-09T17:40:06.106Z,25.20
2022-12-09T17:42:33.200Z,28.20
2022-12-09T17:44:59.572Z,26.17
2022-12-09T17:47:27.124Z,26.75
2022-12-09T17:49:53.554Z,24.77
2022-12-09T17:52:20.019Z,26.10
2022-12-09T17:54:47.327Z,26.05
2022-12-09T17:57:14.062Z,25.08
2022-12-09T17:59:40.532Z,25.98
2022-12-09T18:02:07.367Z,26.30
2022-12-09T18:04:33.923Z,23.38
2022-12-09T18:07:00.351Z,23.85
2022-12-09T18:09:26.806Z,24.40
2022-12-09T18:11:53.260Z,25.88
2022-12-09T18:14:20.830Z,24.13
2022-12-09T18:16:48.904Z,24.30
2022-12-09T18:19:16.870Z,23.95
2022-12-09T18:21:44.368Z,25.67
2022-12-09T18:24:10.903Z,25.30
2022-12-09T18:26:41.637Z,25.33
2022-12-09T18:29:09.408Z,22.77
2022-12-09T18:31:36.024Z,23.92
2022-12-09T18:34:02.567Z,24.42
2022-12-09T18:36:29.219Z,23.52
2022-12-09T18:38:57.833Z,26.40
2022-12-09T18:41:26.982Z,25.55
2022-12-09T18:43:54.354Z,24.50
2022-12-09T18:46:25.642Z,25.48
2022-12-09T18:49:01.404Z,23.27
2022-12-09T18:51:28.646Z,24.98
2022-12-09T18:53:57.152Z,22.30
2022-12-09T18:56:23.556Z,23.98
2022-12-09T18:59:05.814Z,26.13
2022-12-09T19:01:34.089Z,26.00
2022-12-09T19:04:02.262Z,24.38
2022-12-09T19:06:32.738Z,22.17
2022-12-09T19:09:07.523Z,23.02
2022-12-09T19:11:35.734Z,23.17
2022-12-09T19:14:02.248Z,22.48
2022-12-09T19:16:29.461Z,21.90
2022-12-09T19:18:56.666Z,23.08
2022-12-09T19:21:25.090Z,23.88
2022-12-09T19:23:51.801Z,25.02
2022-12-09T19:26:23.634Z,25.50
2022-12-09T19:28:55.622Z,22.30
2022-12-09T19:31:33.610Z,24.08
2022-12-09T19:34:02.341Z,24.85
2022-12-09T19:36:30.359Z,27.08
2022-12-09T19:39:00.390Z,26.30
2022-12-09T19:41:27.415Z,26.95
2022-12-09T19:43:58.443Z,27.00
2022-12-09T19:46:26.594Z,24.77
2022-12-09T19:48:53.728Z,27.83
2022-12-09T19:51:21.001Z,25.40
2022-12-09T19:53:48.517Z,26.10
2022-12-09T19:56:17.225Z,26.48
2022-12-09T19:58:44.312Z,26.83
2022-12-09T20:01:16.558Z,27.88
2022-12-09T20:03:44.747Z,24.77
2022-12-09T20:06:13.685Z,23.88
2022-12-09T20:08:40.395Z,23.00
2022-12-09T20:11:12.428Z,22.80
2022-12-09T20:13:38.858Z,21.98
2022-12-09T20:16:07.423Z,23.05
2022-12-09T20:18:34.840Z,21.65
2022-12-09T20:21:02.735Z,21.20
2022-12-09T20:23:29.163Z,21.25
2022-12-09T20:26:02.783Z,23.42
2022-12-09T20:28:30.464Z,23.70
2022-12-09T20:31:12.195Z,21.42
2022-12-09T20:33:38.919Z,21.50
2022-12-09T20:36:09.422Z,22.08
2022-12-09T20:38:36.271Z,21.90
2022-12-09T20:41:09.609Z,21.13
2022-12-09T20:43:44.917Z,21.13
2022-12-09T20:46:17.510Z,21.25
2022-12-09T20:48:44.469Z,21.63
2022-12-09T20:51:13.881Z,22.20
2022-12-09T20:53:42.044Z,21.92
2022-12-09T20:56:09.430Z,22.00
2022-12-09T20:58:36.531Z,22.00
2022-12-09T21:01:06.681Z,22.17
2022-12-09T21:03:33.218Z,19.63
2022-12-09T21:05:59.637Z,21.33
2022-12-09T21:08:31.283Z,23.60
2022-12-09T21:11:06.782Z,24.50
2022-12-09T21:13:36.699Z,24.75
2022-12-09T21:16:19.784Z,23.75
2022-12-09T21:18:47.525Z,23.88
2022-12-09T21:21:14.291Z,22.73
2022-12-09T21:23:40.903Z,21.83
2022-12-09T21:26:13.000Z,21.20
2022-12-09T21:28:40.372Z,21.00
2022-12-09T21:31:12.916Z,22.05
2022-12-09T21:33:39.845Z,20.65
2022-12-09T21:36:08.149Z,19.42
2022-12-09T21:38:35.458Z,22.05
2022-12-09T21:41:05.909Z,23.13
2022-12-09T21:43:34.171Z,22.30
2022-12-09T21:46:10.049Z,21.55
2022-12-09T21:48:36.522Z,20.35
2022-12-09T21:51:03.259Z,22.15
2022-12-09T21:53:30.313Z,19.98
2022-12-09T21:56:12.383Z,20.80
2022-12-09T21:58:38.821Z,23.10
2022-12-09T22:01:10.629Z,20.58
2022-12-09T22:03:37.751Z,23.08
2022-12-09T22:06:04.752Z,21.67
2022-12-09T22:08:31.248Z,20.70
2022-12-09T22:11:00.484Z,21.10
2022-12-09T22:13:27.926Z,21.08
2022-12-09T22:15:54.448Z,19.50
2022-12-09T22:18:20.869Z,19.42
2022-12-09T22:21:23.166Z,16.75
2022-12-09T22:23:34.140Z,21.25
2022-12-09T22:26:05.002Z,20.77
2022-12-09T22:28:31.528Z,20.85
2022-12-09T22:30:57.933Z,19.05
2022-12-09T22:33:24.348Z,19.90
2022-12-09T22:35:51.201Z,21.55
2022-12-09T22:38:17.569Z,15.55
2022-12-09T22:40:43.998Z,19.88
2022-12-09T22:43:10.822Z,20.55
2022-12-09T22:45:37.354Z,18.73
2022-12-09T22:48:03.970Z,21.55
2022-12-09T22:50:30.363Z,20.90
2022-12-09T22:52:56.765Z,19.75
2022-12-09T22:55:23.226Z,20.88
2022-12-09T22:57:51.798Z,16.48
2022-12-09T23:00:18.664Z,20.73
2022-12-09T23:02:45.130Z,20.77
2022-12-09T23:05:11.669Z,20.80
2022-12-09T23:07:38.116Z,23.13
2022-12-09T23:10:05.184Z,21.17
2022-12-09T23:12:31.787Z,19.50
2022-12-09T23:14:58.147Z,22.67
2022-12-09T23:17:24.544Z,21.65
2022-12-09T23:19:50.959Z,16.00
2022-12-09T23:22:17.467Z,18.67
2022-12-09T23:24:43.893Z,24.85
2022-12-09T23:27:10.401Z,22.52
2022-12-09T23:29:36.870Z,21.95
2022-12-09T23:32:03.234Z,22.20
2022-12-09T23:34:29.649Z,22.35
2022-12-09T23:36:56.022Z,21.33
2022-12-09T23:39:22.412Z,18.10
2022-12-09T23:41:48.869Z,16.38
2022-12-09T23:44:17.634Z,23.10
2022-12-09T23:46:44.331Z,21.73
2022-12-09T23:49:11.086Z,24.75
2022-12-09T23:51:40.254Z,21.88
2022-12-09T23:54:08.164Z,21.58
2022-12-09T23:56:38.843Z,22.65
2022-12-09T23:59:07.962Z,20.75
